sensor_id;sensor_type;location;lat;lon;timestamp;temperature;humidity
67064;SHT30;58476;48.072;11.970;2024-03-29T00:00:56;21.52;45.52
67064;SHT30;58476;48.072;11.970;2024-03-29T00:03:22;21.47;45.54
67064;SHT30;58476;48.072;11.970;2024-03-29T00:05:47;21.49;45.65
67064;SHT30;58476;48.072;11.970;2024-03-29T00:08:12;21.42;45.70
67064;SHT30;58476;48.072;11.970;2024-03-29T00:10:38;21.41;45.75
67064;SHT30;58476;48.072;11.970;2024-03-29T00:13:03;21.39;45.76
67064;SHT30;58476;48.072;11.970;2024-03-29T00:15:28;21.38;45.77
67064;SHT30;58476;48.072;11.970;2024-03-29T00:17:54;21.41;45.81
67064;SHT30;58476;48.072;11.970;2024-03-29T00:20:19;21.35;45.81
67064;SHT30;58476;48.072;11.970;2024-03-29T00:22:44;21.34;45.83
67064;SHT30;58476;48.072;11.970;2024-03-29T00:25:10;21.34;45.89
67064;SHT30;58476;48.072;11.970;2024-03-29T00:27:35;21.32;45.92
67064;SHT30;58476;48.072;11.970;2024-03-29T00:30:01;21.31;45.88
67064;SHT30;58476;48.072;11.970;2024-03-29T00:32:26;21.31;45.99
67064;SHT30;58476;48.072;11.970;2024-03-29T00:34:52;21.30;45.95
67064;SHT30;58476;48.072;11.970;2024-03-29T00:37:18;21.28;45.96
67064;SHT30;58476;48.072;11.970;2024-03-29T00:39:44;21.25;46.02
67064;SHT30;58476;48.072;11.970;2024-03-29T00:42:09;21.24;46.04
67064;SHT30;58476;48.072;11.970;2024-03-29T00:44:35;21.23;46.05
67064;SHT30;58476;48.072;11.970;2024-03-29T00:47:01;21.24;46.06
67064;SHT30;58476;48.072;11.970;2024-03-29T00:49:26;21.24;46.08
67064;SHT30;58476;48.072;11.970;2024-03-29T00:51:52;21.20;46.09
67064;SHT30;58476;48.072;11.970;2024-03-29T00:54:17;21.21;46.10
67064;SHT30;58476;48.072;11.970;2024-03-29T00:56:42;21.17;46.08
67064;SHT30;58476;48.072;11.970;2024-03-29T00:59:08;21.21;46.10
67064;SHT30;58476;48.072;11.970;2024-03-29T01:01:33;21.17;46.11
67064;SHT30;58476;48.072;11.970;2024-03-29T01:03:58;21.15;46.13
67064;SHT30;58476;48.072;11.970;2024-03-29T01:06:23;21.15;46.15
67064;SHT30;58476;48.072;11.970;2024-03-29T01:08:49;21.12;46.20
67064;SHT30;58476;48.072;11.970;2024-03-29T01:11:14;21.11;46.23
67064;SHT30;58476;48.072;11.970;2024-03-29T01:13:39;21.11;46.23
67064;SHT30;58476;48.072;11.970;2024-03-29T01:16:05;21.12;46.18
67064;SHT30;58476;48.072;11.970;2024-03-29T01:18:30;21.11;46.20
67064;SHT30;58476;48.072;11.970;2024-03-29T01:20:56;21.12;46.17
67064;SHT30;58476;48.072;11.970;2024-03-29T01:23:21;21.17;46.06
67064;SHT30;58476;48.072;11.970;2024-03-29T01:25:46;21.18;46.06
67064;SHT30;58476;48.072;11.970;2024-03-29T01:28:12;21.20;45.98
67064;SHT30;58476;48.072;11.970;2024-03-29T01:30:37;21.23;45.89
67064;SHT30;58476;48.072;11.970;2024-03-29T01:33:02;21.27;45.85
67064;SHT30;58476;48.072;11.970;2024-03-29T01:35:28;21.25;45.81
67064;SHT30;58476;48.072;11.970;2024-03-29T01:37:53;21.27;45.76
67064;SHT30;58476;48.072;11.970;2024-03-29T01:40:18;21.30;45.72
67064;SHT30;58476;48.072;11.970;2024-03-29T01:42:44;21.31;45.69
67064;SHT30;58476;48.072;11.970;2024-03-29T01:45:09;21.32;45.62
67064;SHT30;58476;48.072;11.970;2024-03-29T01:47:35;21.32;45.65
67064;SHT30;58476;48.072;11.970;2024-03-29T01:50:00;21.31;45.63
67064;SHT30;58476;48.072;11.970;2024-03-29T01:52:27;21.31;45.61
67064;SHT30;58476;48.072;11.970;2024-03-29T01:54:53;21.30;45.60
67064;SHT30;58476;48.072;11.970;2024-03-29T01:57:19;21.32;45.63
67064;SHT30;58476;48.072;11.970;2024-03-29T01:59:45;21.35;45.48
67064;SHT30;58476;48.072;11.970;2024-03-29T02:02:13;21.32;45.54
67064;SHT30;58476;48.072;11.970;2024-03-29T02:04:41;21.32;45.55
67064;SHT30;58476;48.072;11.970;2024-03-29T02:07:06;21.34;45.45
67064;SHT30;58476;48.072;11.970;2024-03-29T02:09:32;21.31;45.53
67064;SHT30;58476;48.072;11.970;2024-03-29T02:11:57;21.32;45.58
67064;SHT30;58476;48.072;11.970;2024-03-29T02:14:23;21.31;45.49
67064;SHT30;58476;48.072;11.970;2024-03-29T02:16:48;21.30;45.55
67064;SHT30;58476;48.072;11.970;2024-03-29T02:19:14;21.27;45.53
67064;SHT30;58476;48.072;11.970;2024-03-29T02:21:43;21.25;45.57
67064;SHT30;58476;48.072;11.970;2024-03-29T02:24:10;21.25;45.60
67064;SHT30;58476;48.072;11.970;2024-03-29T02:26:37;21.21;45.69
67064;SHT30;58476;48.072;11.970;2024-03-29T02:29:03;21.18;45.69
67064;SHT30;58476;48.072;11.970;2024-03-29T02:31:29;21.17;45.70
67064;SHT30;58476;48.072;11.970;2024-03-29T02:33:54;21.15;45.80
67064;SHT30;58476;48.072;11.970;2024-03-29T02:36:20;21.11;45.78
67064;SHT30;58476;48.072;11.970;2024-03-29T02:38:45;21.10;45.80
67064;SHT30;58476;48.072;11.970;2024-03-29T02:41:10;21.08;45.89
67064;SHT30;58476;48.072;11.970;2024-03-29T02:43:36;21.10;45.82
67064;SHT30;58476;48.072;11.970;2024-03-29T02:46:02;21.07;45.89
67064;SHT30;58476;48.072;11.970;2024-03-29T02:48:27;21.08;45.82
67064;SHT30;58476;48.072;11.970;2024-03-29T02:50:52;21.06;45.86
67064;SHT30;58476;48.072;11.970;2024-03-29T02:53:18;21.03;45.80
67064;SHT30;58476;48.072;11.970;2024-03-29T02:55:43;21.03;45.90
67064;SHT30;58476;48.072;11.970;2024-03-29T02:58:08;21.01;45.86
67064;SHT30;58476;48.072;11.970;2024-03-29T03:00:34;21.00;45.94
67064;SHT30;58476;48.072;11.970;2024-03-29T03:02:59;20.97;45.91
67064;SHT30;58476;48.072;11.970;2024-03-29T03:05:24;20.98;45.90
67064;SHT30;58476;48.072;11.970;2024-03-29T03:07:50;20.94;45.93
67064;SHT30;58476;48.072;11.970;2024-03-29T03:10:15;20.94;45.96
67064;SHT30;58476;48.072;11.970;2024-03-29T03:12:40;20.96;46.00
67064;SHT30;58476;48.072;11.970;2024-03-29T03:15:06;20.91;45.99
67064;SHT30;58476;48.072;11.970;2024-03-29T03:17:32;20.93;45.94
67064;SHT30;58476;48.072;11.970;2024-03-29T03:19:57;20.90;46.05
67064;SHT30;58476;48.072;11.970;2024-03-29T03:22:22;20.90;46.02
67064;SHT30;58476;48.072;11.970;2024-03-29T03:24:48;20.90;45.99
67064;SHT30;58476;48.072;11.970;2024-03-29T03:27:13;20.90;46.09
67064;SHT30;58476;48.072;11.970;2024-03-29T03:29:39;20.87;46.04
67064;SHT30;58476;48.072;11.970;2024-03-29T03:32:05;20.87;46.07
67064;SHT30;58476;48.072;11.970;2024-03-29T03:34:32;20.86;46.04
67064;SHT30;58476;48.072;11.970;2024-03-29T03:36:57;20.84;46.09
67064;SHT30;58476;48.072;11.970;2024-03-29T03:39:23;20.84;46.03
67064;SHT30;58476;48.072;11.970;2024-03-29T03:41:48;20.81;46.11
67064;SHT30;58476;48.072;11.970;2024-03-29T03:44:13;20.87;46.02
67064;SHT30;58476;48.072;11.970;2024-03-29T03:46:39;20.87;45.98
67064;SHT30;58476;48.072;11.970;2024-03-29T03:49:04;20.88;45.97
67064;SHT30;58476;48.072;11.970;2024-03-29T03:51:29;20.93;45.88
67064;SHT30;58476;48.072;11.970;2024-03-29T03:53:54;20.91;45.82
67064;SHT30;58476;48.072;11.970;2024-03-29T03:56:20;20.97;45.86
67064;SHT30;58476;48.072;11.970;2024-03-29T03:58:45;20.97;45.78
67064;SHT30;58476;48.072;11.970;2024-03-29T04:01:10;21.00;45.77
67064;SHT30;58476;48.072;11.970;2024-03-29T04:03:36;21.03;45.69
67064;SHT30;58476;48.072;11.970;2024-03-29T04:06:05;21.01;45.62
67064;SHT30;58476;48.072;11.970;2024-03-29T04:08:30;21.03;45.64
67064;SHT30;58476;48.072;11.970;2024-03-29T04:10:56;21.01;45.60
67064;SHT30;58476;48.072;11.970;2024-03-29T04:13:22;21.06;45.53
67064;SHT30;58476;48.072;11.970;2024-03-29T04:15:47;21.06;45.53
67064;SHT30;58476;48.072;11.970;2024-03-29T04:18:13;21.08;45.43
67064;SHT30;58476;48.072;11.970;2024-03-29T04:20:38;21.08;45.51
67064;SHT30;58476;48.072;11.970;2024-03-29T04:23:04;21.12;45.44
67064;SHT30;58476;48.072;11.970;2024-03-29T04:25:30;21.10;45.44
67064;SHT30;58476;48.072;11.970;2024-03-29T04:27:55;21.10;45.44
67064;SHT30;58476;48.072;11.970;2024-03-29T04:30:20;21.11;45.37
67064;SHT30;58476;48.072;11.970;2024-03-29T04:32:46;21.14;45.39
67064;SHT30;58476;48.072;11.970;2024-03-29T04:35:11;21.12;45.38
67064;SHT30;58476;48.072;11.970;2024-03-29T04:37:36;21.15;45.37
67064;SHT30;58476;48.072;11.970;2024-03-29T04:40:02;21.17;45.36
67064;SHT30;58476;48.072;11.970;2024-03-29T04:42:27;21.11;45.45
67064;SHT30;58476;48.072;11.970;2024-03-29T04:44:52;21.10;45.51
67064;SHT30;58476;48.072;11.970;2024-03-29T04:47:18;21.08;45.51
67064;SHT30;58476;48.072;11.970;2024-03-29T04:49:43;21.08;45.56
67064;SHT30;58476;48.072;11.970;2024-03-29T04:52:08;21.06;45.60
67064;SHT30;58476;48.072;11.970;2024-03-29T04:54:34;21.07;45.58
67064;SHT30;58476;48.072;11.970;2024-03-29T04:57:02;21.07;45.66
67064;SHT30;58476;48.072;11.970;2024-03-29T04:59:28;21.06;45.71
67064;SHT30;58476;48.072;11.970;2024-03-29T05:01:54;21.04;45.71
67064;SHT30;58476;48.072;11.970;2024-03-29T05:04:20;21.04;45.66
67064;SHT30;58476;48.072;11.970;2024-03-29T05:06:45;21.07;45.74
67064;SHT30;58476;48.072;11.970;2024-03-29T05:09:11;21.03;45.76
67064;SHT30;58476;48.072;11.970;2024-03-29T05:11:36;21.01;45.81
67064;SHT30;58476;48.072;11.970;2024-03-29T05:14:01;21.01;45.78
67064;SHT30;58476;48.072;11.970;2024-03-29T05:16:27;20.97;45.86
67064;SHT30;58476;48.072;11.970;2024-03-29T05:18:52;21.03;45.84
67064;SHT30;58476;48.072;11.970;2024-03-29T05:21:17;21.01;45.85
67064;SHT30;58476;48.072;11.970;2024-03-29T05:23:42;21.04;45.88
67064;SHT30;58476;48.072;11.970;2024-03-29T05:26:08;21.01;45.86
67064;SHT30;58476;48.072;11.970;2024-03-29T05:28:33;21.03;45.87
67064;SHT30;58476;48.072;11.970;2024-03-29T05:31:11;21.04;45.88
67064;SHT30;58476;48.072;11.970;2024-03-29T05:33:37;21.04;45.94
67064;SHT30;58476;48.072;11.970;2024-03-29T05:36:02;21.06;45.93
67064;SHT30;58476;48.072;11.970;2024-03-29T05:38:27;21.07;45.95
67064;SHT30;58476;48.072;11.970;2024-03-29T05:40:53;21.06;46.00
67064;SHT30;58476;48.072;11.970;2024-03-29T05:43:18;21.06;45.96
67064;SHT30;58476;48.072;11.970;2024-03-29T05:45:43;21.07;45.97
67064;SHT30;58476;48.072;11.970;2024-03-29T05:48:09;21.07;46.00
67064;SHT30;58476;48.072;11.970;2024-03-29T05:50:34;21.08;45.97
67064;SHT30;58476;48.072;11.970;2024-03-29T05:52:59;21.10;45.97
67064;SHT30;58476;48.072;11.970;2024-03-29T05:55:24;21.10;45.98
67064;SHT30;58476;48.072;11.970;2024-03-29T05:57:50;21.11;45.98
67064;SHT30;58476;48.072;11.970;2024-03-29T06:00:15;21.14;45.94
67064;SHT30;58476;48.072;11.970;2024-03-29T06:02:42;21.12;45.97
67064;SHT30;58476;48.072;11.970;2024-03-29T06:05:07;21.14;45.92
67064;SHT30;58476;48.072;11.970;2024-03-29T06:07:33;21.15;45.81
67064;SHT30;58476;48.072;11.970;2024-03-29T06:09:59;21.20;45.75
67064;SHT30;58476;48.072;11.970;2024-03-29T06:12:24;21.25;45.72
67064;SHT30;58476;48.072;11.970;2024-03-29T06:14:49;21.30;45.60
67064;SHT30;58476;48.072;11.970;2024-03-29T06:17:14;21.35;45.52
67064;SHT30;58476;48.072;11.970;2024-03-29T06:19:40;21.42;45.42
67064;SHT30;58476;48.072;11.970;2024-03-29T06:22:05;21.45;45.37
67064;SHT30;58476;48.072;11.970;2024-03-29T06:24:30;21.49;45.27
67064;SHT30;58476;48.072;11.970;2024-03-29T06:26:56;21.55;45.26
67064;SHT30;58476;48.072;11.970;2024-03-29T06:29:21;21.59;45.20
67064;SHT30;58476;48.072;11.970;2024-03-29T06:31:46;21.65;45.14
67064;SHT30;58476;48.072;11.970;2024-03-29T06:34:12;21.66;45.01
67064;SHT30;58476;48.072;11.970;2024-03-29T06:36:37;21.71;45.02
67064;SHT30;58476;48.072;11.970;2024-03-29T06:39:02;21.75;44.94
67064;SHT30;58476;48.072;11.970;2024-03-29T06:41:28;21.76;44.95
67064;SHT30;58476;48.072;11.970;2024-03-29T06:43:53;21.81;44.90
67064;SHT30;58476;48.072;11.970;2024-03-29T06:46:18;21.85;44.86
67064;SHT30;58476;48.072;11.970;2024-03-29T06:48:43;21.86;44.88
67064;SHT30;58476;48.072;11.970;2024-03-29T06:51:10;21.89;44.93
67064;SHT30;58476;48.072;11.970;2024-03-29T06:53:35;21.89;44.85
67064;SHT30;58476;48.072;11.970;2024-03-29T06:56:01;21.92;44.88
67064;SHT30;58476;48.072;11.970;2024-03-29T06:58:26;21.95;44.81
67064;SHT30;58476;48.072;11.970;2024-03-29T07:00:51;21.96;44.79
67064;SHT30;58476;48.072;11.970;2024-03-29T07:03:17;21.99;44.77
67064;SHT30;58476;48.072;11.970;2024-03-29T07:05:42;22.03;44.79
67064;SHT30;58476;48.072;11.970;2024-03-29T07:08:07;22.02;44.79
67064;SHT30;58476;48.072;11.970;2024-03-29T07:10:33;21.99;44.84
67064;SHT30;58476;48.072;11.970;2024-03-29T07:12:58;21.96;44.88
67064;SHT30;58476;48.072;11.970;2024-03-29T07:15:23;22.00;44.89
67064;SHT30;58476;48.072;11.970;2024-03-29T07:17:49;21.99;44.98
67064;SHT30;58476;48.072;11.970;2024-03-29T07:20:14;21.99;45.01
67064;SHT30;58476;48.072;11.970;2024-03-29T07:22:39;22.00;45.06
67064;SHT30;58476;48.072;11.970;2024-03-29T07:25:05;22.02;45.03
67064;SHT30;58476;48.072;11.970;2024-03-29T07:27:31;21.99;45.06
67064;SHT30;58476;48.072;11.970;2024-03-29T07:29:57;21.99;45.14
67064;SHT30;58476;48.072;11.970;2024-03-29T07:32:22;21.99;45.10
67064;SHT30;58476;48.072;11.970;2024-03-29T07:34:47;21.97;45.19
67064;SHT30;58476;48.072;11.970;2024-03-29T07:37:13;21.96;45.27
67064;SHT30;58476;48.072;11.970;2024-03-29T07:39:38;21.96;45.26
67064;SHT30;58476;48.072;11.970;2024-03-29T07:42:04;21.97;45.28
67064;SHT30;58476;48.072;11.970;2024-03-29T07:44:29;21.99;45.26
67064;SHT30;58476;48.072;11.970;2024-03-29T07:46:54;21.99;45.32
67064;SHT30;58476;48.072;11.970;2024-03-29T07:49:19;21.99;45.28
67064;SHT30;58476;48.072;11.970;2024-03-29T07:51:45;21.99;45.26
67064;SHT30;58476;48.072;11.970;2024-03-29T07:54:10;22.02;45.22
67064;SHT30;58476;48.072;11.970;2024-03-29T07:56:35;22.05;45.25
67064;SHT30;58476;48.072;11.970;2024-03-29T07:59:01;22.03;45.24
67064;SHT30;58476;48.072;11.970;2024-03-29T08:01:26;22.05;45.27
67064;SHT30;58476;48.072;11.970;2024-03-29T08:03:52;22.06;45.28
67064;SHT30;58476;48.072;11.970;2024-03-29T08:06:17;22.10;45.24
67064;SHT30;58476;48.072;11.970;2024-03-29T08:08:42;22.10;45.32
67064;SHT30;58476;48.072;11.970;2024-03-29T08:11:08;22.10;45.32
67064;SHT30;58476;48.072;11.970;2024-03-29T08:13:33;22.12;45.31
67064;SHT30;58476;48.072;11.970;2024-03-29T08:15:59;22.12;45.32
67064;SHT30;58476;48.072;11.970;2024-03-29T08:18:26;22.14;45.29
67064;SHT30;58476;48.072;11.970;2024-03-29T08:20:51;22.16;45.32
67064;SHT30;58476;48.072;11.970;2024-03-29T08:23:16;22.17;45.32
67064;SHT30;58476;48.072;11.970;2024-03-29T08:25:42;22.18;45.36
67064;SHT30;58476;48.072;11.970;2024-03-29T08:28:07;22.21;45.28
67064;SHT30;58476;48.072;11.970;2024-03-29T08:30:32;22.23;45.27
67064;SHT30;58476;48.072;11.970;2024-03-29T08:32:58;22.21;45.31
67064;SHT30;58476;48.072;11.970;2024-03-29T08:35:23;22.21;45.30
67064;SHT30;58476;48.072;11.970;2024-03-29T08:37:48;22.30;45.19
67064;SHT30;58476;48.072;11.970;2024-03-29T08:40:14;22.30;45.16
67064;SHT30;58476;48.072;11.970;2024-03-29T08:42:39;22.39;45.08
67064;SHT30;58476;48.072;11.970;2024-03-29T08:45:04;22.44;45.03
67064;SHT30;58476;48.072;11.970;2024-03-29T08:47:30;22.47;44.96
67064;SHT30;58476;48.072;11.970;2024-03-29T08:49:55;22.55;44.88
67064;SHT30;58476;48.072;11.970;2024-03-29T08:52:20;22.64;44.77
67064;SHT30;58476;48.072;11.970;2024-03-29T08:54:46;22.67;44.75
67064;SHT30;58476;48.072;11.970;2024-03-29T08:57:11;22.72;44.62
67064;SHT30;58476;48.072;11.970;2024-03-29T08:59:36;22.74;44.61
67064;SHT30;58476;48.072;11.970;2024-03-29T09:02:05;22.74;44.63
67064;SHT30;58476;48.072;11.970;2024-03-29T09:04:30;22.78;44.58
67064;SHT30;58476;48.072;11.970;2024-03-29T09:06:55;22.78;44.56
67064;SHT30;58476;48.072;11.970;2024-03-29T09:09:21;22.83;44.59
67064;SHT30;58476;48.072;11.970;2024-03-29T09:11:46;22.84;44.55
67064;SHT30;58476;48.072;11.970;2024-03-29T09:14:11;22.87;44.62
67064;SHT30;58476;48.072;11.970;2024-03-29T09:16:36;22.85;44.52
67064;SHT30;58476;48.072;11.970;2024-03-29T09:19:02;22.92;44.50
67064;SHT30;58476;48.072;11.970;2024-03-29T09:21:27;22.90;44.56
67064;SHT30;58476;48.072;11.970;2024-03-29T09:23:52;22.95;44.64
67064;SHT30;58476;48.072;11.970;2024-03-29T09:26:18;22.98;44.52
67064;SHT30;58476;48.072;11.970;2024-03-29T09:28:43;23.04;44.55
67064;SHT30;58476;48.072;11.970;2024-03-29T09:31:09;23.08;44.68
67064;SHT30;58476;48.072;11.970;2024-03-29T09:33:34;23.11;44.59
67064;SHT30;58476;48.072;11.970;2024-03-29T09:35:59;23.14;44.64
67064;SHT30;58476;48.072;11.970;2024-03-29T09:38:26;23.16;44.63
67064;SHT30;58476;48.072;11.970;2024-03-29T09:41:06;23.08;44.08
67064;SHT30;58476;48.072;11.970;2024-03-29T09:43:33;23.05;44.21
67064;SHT30;58476;48.072;11.970;2024-03-29T09:45:59;23.08;44.32
67064;SHT30;58476;48.072;11.970;2024-03-29T09:48:25;23.05;44.49
67064;SHT30;58476;48.072;11.970;2024-03-29T09:50:51;23.04;44.46
67064;SHT30;58476;48.072;11.970;2024-03-29T09:53:18;23.08;44.50
67064;SHT30;58476;48.072;11.970;2024-03-29T09:55:45;23.04;44.51
67064;SHT30;58476;48.072;11.970;2024-03-29T09:58:11;23.05;44.56
67064;SHT30;58476;48.072;11.970;2024-03-29T10:00:36;23.04;44.59
67064;SHT30;58476;48.072;11.970;2024-03-29T10:03:02;22.99;44.67
67064;SHT30;58476;48.072;11.970;2024-03-29T10:05:28;22.99;44.70
67064;SHT30;58476;48.072;11.970;2024-03-29T10:07:54;22.98;44.72
67064;SHT30;58476;48.072;11.970;2024-03-29T10:10:19;22.98;44.76
67064;SHT30;58476;48.072;11.970;2024-03-29T10:12:44;22.96;44.81
67064;SHT30;58476;48.072;11.970;2024-03-29T10:15:10;22.95;44.86
67064;SHT30;58476;48.072;11.970;2024-03-29T10:17:35;22.96;44.86
67064;SHT30;58476;48.072;11.970;2024-03-29T10:20:01;22.91;45.01
67064;SHT30;58476;48.072;11.970;2024-03-29T10:22:26;22.95;44.95
67064;SHT30;58476;48.072;11.970;2024-03-29T10:24:51;22.98;44.91
67064;SHT30;58476;48.072;11.970;2024-03-29T10:27:17;22.96;44.89
67064;SHT30;58476;48.072;11.970;2024-03-29T10:29:42;22.92;44.97
67064;SHT30;58476;48.072;11.970;2024-03-29T10:32:08;22.91;45.13
67064;SHT30;58476;48.072;11.970;2024-03-29T10:34:33;22.85;45.26
67064;SHT30;58476;48.072;11.970;2024-03-29T10:36:59;22.88;45.20
67064;SHT30;58476;48.072;11.970;2024-03-29T10:39:24;22.85;45.19
67064;SHT30;58476;48.072;11.970;2024-03-29T10:41:50;22.87;45.21
67064;SHT30;58476;48.072;11.970;2024-03-29T10:44:20;22.84;45.31
67064;SHT30;58476;48.072;11.970;2024-03-29T10:46:46;22.78;45.45
67064;SHT30;58476;48.072;11.970;2024-03-29T10:49:14;22.91;45.29
67064;SHT30;58476;48.072;11.970;2024-03-29T10:51:41;23.01;45.10
67064;SHT30;58476;48.072;11.970;2024-03-29T10:54:10;23.06;45.00
67064;SHT30;58476;48.072;11.970;2024-03-29T10:56:36;23.11;45.01
67064;SHT30;58476;48.072;11.970;2024-03-29T10:59:21;23.19;44.89
67064;SHT30;58476;48.072;11.970;2024-03-29T11:01:52;23.18;44.82
67064;SHT30;58476;48.072;11.970;2024-03-29T11:04:22;23.25;44.77
67064;SHT30;58476;48.072;11.970;2024-03-29T11:06:50;23.27;44.72
67064;SHT30;58476;48.072;11.970;2024-03-29T11:09:19;23.27;44.77
67064;SHT30;58476;48.072;11.970;2024-03-29T11:11:48;23.30;44.76
67064;SHT30;58476;48.072;11.970;2024-03-29T11:14:20;23.30;44.73
67064;SHT30;58476;48.072;11.970;2024-03-29T11:16:45;23.38;44.73
67064;SHT30;58476;48.072;11.970;2024-03-29T11:19:14;23.42;44.72
67064;SHT30;58476;48.072;11.970;2024-03-29T11:21:40;23.46;44.59
67064;SHT30;58476;48.072;11.970;2024-03-29T11:24:07;23.49;44.53
67064;SHT30;58476;48.072;11.970;2024-03-29T11:26:32;23.57;44.46
67064;SHT30;58476;48.072;11.970;2024-03-29T11:28:58;23.60;44.41
67064;SHT30;58476;48.072;11.970;2024-03-29T11:31:24;23.56;44.44
67064;SHT30;58476;48.072;11.970;2024-03-29T11:33:50;23.55;44.46
67064;SHT30;58476;48.072;11.970;2024-03-29T11:36:22;23.52;44.53
67064;SHT30;58476;48.072;11.970;2024-03-29T11:38:49;23.53;44.44
67064;SHT30;58476;48.072;11.970;2024-03-29T11:41:16;23.53;44.48
67064;SHT30;58476;48.072;11.970;2024-03-29T11:43:42;23.53;44.45
67064;SHT30;58476;48.072;11.970;2024-03-29T11:46:09;23.59;44.45
67064;SHT30;58476;48.072;11.970;2024-03-29T11:48:34;23.66;44.35
67064;SHT30;58476;48.072;11.970;2024-03-29T11:51:00;23.70;44.32
67064;SHT30;58476;48.072;11.970;2024-03-29T11:53:26;23.69;44.31
67064;SHT30;58476;48.072;11.970;2024-03-29T11:55:52;23.66;44.40
67064;SHT30;58476;48.072;11.970;2024-03-29T11:58:17;23.76;44.27
67064;SHT30;58476;48.072;11.970;2024-03-29T12:00:42;23.81;44.19
67064;SHT30;58476;48.072;11.970;2024-03-29T12:03:08;23.92;44.09
67064;SHT30;58476;48.072;11.970;2024-03-29T12:05:33;23.97;44.00
67064;SHT30;58476;48.072;11.970;2024-03-29T12:07:58;24.04;43.97
67064;SHT30;58476;48.072;11.970;2024-03-29T12:10:28;24.11;43.85
67064;SHT30;58476;48.072;11.970;2024-03-29T12:12:59;24.15;43.75
67064;SHT30;58476;48.072;11.970;2024-03-29T12:15:24;24.20;43.65
67064;SHT30;58476;48.072;11.970;2024-03-29T12:17:57;24.26;43.67
67064;SHT30;58476;48.072;11.970;2024-03-29T12:20:23;24.31;43.51
67064;SHT30;58476;48.072;11.970;2024-03-29T12:22:48;24.34;43.49
67064;SHT30;58476;48.072;11.970;2024-03-29T12:25:14;24.34;43.47
67064;SHT30;58476;48.072;11.970;2024-03-29T12:27:39;24.39;43.43
67064;SHT30;58476;48.072;11.970;2024-03-29T12:30:07;24.39;43.35
67064;SHT30;58476;48.072;11.970;2024-03-29T12:32:32;24.39;43.44
67064;SHT30;58476;48.072;11.970;2024-03-29T12:35:09;24.44;43.44
67064;SHT30;58476;48.072;11.970;2024-03-29T12:37:34;24.42;43.42
67064;SHT30;58476;48.072;11.970;2024-03-29T12:40:00;24.47;43.40
67064;SHT30;58476;48.072;11.970;2024-03-29T12:42:25;24.48;43.39
67064;SHT30;58476;48.072;11.970;2024-03-29T12:44:50;24.48;43.39
67064;SHT30;58476;48.072;11.970;2024-03-29T12:47:16;24.54;43.32
67064;SHT30;58476;48.072;11.970;2024-03-29T12:49:41;24.58;43.24
67064;SHT30;58476;48.072;11.970;2024-03-29T12:52:07;24.61;43.29
67064;SHT30;58476;48.072;11.970;2024-03-29T12:54:32;24.65;43.27
67064;SHT30;58476;48.072;11.970;2024-03-29T12:56:57;24.66;43.27
67064;SHT30;58476;48.072;11.970;2024-03-29T12:59:23;24.66;43.22
67064;SHT30;58476;48.072;11.970;2024-03-29T13:01:53;24.69;43.21
67064;SHT30;58476;48.072;11.970;2024-03-29T13:04:18;24.75;43.18
67064;SHT30;58476;48.072;11.970;2024-03-29T13:06:43;24.76;43.23
67064;SHT30;58476;48.072;11.970;2024-03-29T13:09:09;24.73;43.24
67064;SHT30;58476;48.072;11.970;2024-03-29T13:11:34;24.65;43.33
67064;SHT30;58476;48.072;11.970;2024-03-29T13:13:59;24.71;43.36
67064;SHT30;58476;48.072;11.970;2024-03-29T13:16:24;24.76;43.26
67064;SHT30;58476;48.072;11.970;2024-03-29T13:18:50;24.80;43.21
67064;SHT30;58476;48.072;11.970;2024-03-29T13:21:15;24.83;43.12
67064;SHT30;58476;48.072;11.970;2024-03-29T13:23:40;24.89;43.18
67064;SHT30;58476;48.072;11.970;2024-03-29T13:26:05;24.87;43.14
67064;SHT30;58476;48.072;11.970;2024-03-29T13:28:31;24.83;43.17
67064;SHT30;58476;48.072;11.970;2024-03-29T13:30:56;24.82;43.29
67064;SHT30;58476;48.072;11.970;2024-03-29T13:33:21;24.85;43.23
67064;SHT30;58476;48.072;11.970;2024-03-29T13:35:47;24.76;43.38
67064;SHT30;58476;48.072;11.970;2024-03-29T13:38:12;24.75;43.43
67064;SHT30;58476;48.072;11.970;2024-03-29T13:40:37;24.65;43.49
67064;SHT30;58476;48.072;11.970;2024-03-29T13:43:03;24.72;43.53
67064;SHT30;58476;48.072;11.970;2024-03-29T13:45:28;24.72;43.48
67064;SHT30;58476;48.072;11.970;2024-03-29T13:47:53;24.80;43.42
67064;SHT30;58476;48.072;11.970;2024-03-29T13:50:19;24.89;43.37
67064;SHT30;58476;48.072;11.970;2024-03-29T13:52:44;24.93;43.24
67064;SHT30;58476;48.072;11.970;2024-03-29T13:55:10;25.02;43.19
67064;SHT30;58476;48.072;11.970;2024-03-29T13:57:36;25.00;43.26
67064;SHT30;58476;48.072;11.970;2024-03-29T14:00:02;25.09;43.08
67064;SHT30;58476;48.072;11.970;2024-03-29T14:02:27;25.14;42.90
67064;SHT30;58476;48.072;11.970;2024-03-29T14:04:53;25.19;42.95
67064;SHT30;58476;48.072;11.970;2024-03-29T14:07:18;25.24;43.00
67064;SHT30;58476;48.072;11.970;2024-03-29T14:09:44;25.26;42.93
67064;SHT30;58476;48.072;11.970;2024-03-29T14:12:10;25.30;42.72
67064;SHT30;58476;48.072;11.970;2024-03-29T14:14:36;25.34;42.80
67064;SHT30;58476;48.072;11.970;2024-03-29T14:17:01;25.34;42.62
67064;SHT30;58476;48.072;11.970;2024-03-29T14:19:27;25.30;42.94
67064;SHT30;58476;48.072;11.970;2024-03-29T14:21:52;25.26;42.90
67064;SHT30;58476;48.072;11.970;2024-03-29T14:24:17;25.20;43.05
67064;SHT30;58476;48.072;11.970;2024-03-29T14:26:43;25.24;43.10
67064;SHT30;58476;48.072;11.970;2024-03-29T14:29:08;25.14;43.17
67064;SHT30;58476;48.072;11.970;2024-03-29T14:31:34;25.09;43.08
67064;SHT30;58476;48.072;11.970;2024-03-29T14:33:59;25.10;43.23
67064;SHT30;58476;48.072;11.970;2024-03-29T14:36:24;25.10;43.37
67064;SHT30;58476;48.072;11.970;2024-03-29T14:38:50;25.12;43.37
67064;SHT30;58476;48.072;11.970;2024-03-29T14:41:15;25.17;43.35
67064;SHT30;58476;48.072;11.970;2024-03-29T14:43:41;25.20;43.31
67064;SHT30;58476;48.072;11.970;2024-03-29T14:46:06;25.20;43.10
67064;SHT30;58476;48.072;11.970;2024-03-29T14:48:31;25.23;43.19
67064;SHT30;58476;48.072;11.970;2024-03-29T14:50:57;25.24;43.35
67064;SHT30;58476;48.072;11.970;2024-03-29T14:53:22;25.20;43.27
67064;SHT30;58476;48.072;11.970;2024-03-29T14:55:47;25.16;43.33
67064;SHT30;58476;48.072;11.970;2024-03-29T14:58:13;25.14;43.31
67064;SHT30;58476;48.072;11.970;2024-03-29T15:00:38;25.13;43.41
67064;SHT30;58476;48.072;11.970;2024-03-29T15:03:03;25.07;43.41
67064;SHT30;58476;48.072;11.970;2024-03-29T15:05:29;25.12;43.41